createdAt,value
2017-05-02T00:00:40.392Z,21
2017-05-02T00:10:40.389Z,20
2017-05-02T00:20:40.314Z,21
2017-05-02T00:30:40.352Z,21
2017-05-02T00:40:40.436Z,20
2017-05-02T00:50:40.407Z,22
2017-05-02T01:00:40.491Z,19
2017-05-02T01:10:40.363Z,18
2017-05-02T01:20:40.355Z,19
2017-05-02T01:30:40.424Z,19
2017-05-02T01:40:40.523Z,19
2017-05-02T01:50:40.480Z,18
2017-05-02T02:00:40.442Z,21
2017-05-02T02:10:40.749Z,21
2017-05-02T02:20:40.426Z,21
2017-05-02T02:30:40.480Z,20
2017-05-02T02:40:40.483Z,26
2017-05-02T02:50:40.459Z,24
2017-05-02T03:00:40.478Z,24
2017-05-02T03:10:40.493Z,28
2017-05-02T03:20:40.528Z,31
2017-05-02T03:30:40.589Z,30
2017-05-02T03:40:40.497Z,34
2017-05-02T03:50:40.503Z,34
2017-05-02T04:00:40.558Z,35
2017-05-02T04:10:40.518Z,36
2017-05-02T04:20:40.538Z,42
2017-05-02T04:30:40.533Z,41
2017-05-02T04:40:40.585Z,44
2017-05-02T04:50:40.540Z,41
2017-05-02T05:00:40.584Z,44
2017-05-02T05:10:40.591Z,42
2017-05-02T05:20:40.635Z,45
2017-05-02T05:30:40.647Z,41
2017-05-02T05:40:40.601Z,44
2017-05-02T05:50:40.624Z,39
2017-05-02T06:00:41.208Z,39
2017-05-02T06:10:40.655Z,42
2017-05-02T06:20:40.635Z,37
2017-05-02T06:30:40.652Z,40
2017-05-02T06:40:40.673Z,40
2017-05-02T06:50:40.658Z,33
2017-05-02T07:00:40.768Z,35
2017-05-02T07:10:40.697Z,32
2017-05-02T07:20:40.751Z,32
2017-05-02T07:30:40.713Z,24
2017-05-02T07:40:40.693Z,27
2017-05-02T07:50:40.709Z,21
2017-05-02T08:00:40.745Z,21
2017-05-02T08:10:41.168Z,19
2017-05-02T08:20:52.844Z,19
2017-05-02T08:30:40.801Z,18
2017-05-02T08:40:40.794Z,17
2017-05-02T08:50:40.879Z,16
2017-05-02T09:00:40.806Z,17
2017-05-02T09:10:41.282Z,15
2017-05-02T09:20:41.075Z,15
2017-05-02T09:30:40.883Z,13
2017-05-02T09:40:40.926Z,13
2017-05-02T09:50:40.872Z,13
2017-05-02T10:00:41.038Z,15
2017-05-02T10:10:40.956Z,15
2017-05-02T10:20:41.775Z,14
2017-05-02T10:30:40.988Z,12
2017-05-02T10:40:40.981Z,15
2017-05-02T10:50:41.162Z,16
2017-05-02T11:00:42.438Z,14
2017-05-02T11:10:41.470Z,13
2017-05-02T11:20:41.532Z,14
2017-05-02T11:30:41.695Z,14
2017-05-02T11:40:41.412Z,15
2017-05-02T11:50:40.969Z,15
2017-05-02T12:00:40.955Z,14
2017-05-02T12:10:40.987Z,15
2017-05-02T12:20:41.692Z,15
2017-05-02T12:30:41.007Z,13
2017-05-02T12:40:40.999Z,15
2017-05-02T12:50:41.053Z,16
2017-05-02T13:00:41.114Z,15
2017-05-02T13:10:41.104Z,14
2017-05-02T13:20:41.010Z,15
2017-05-02T13:30:41.069Z,16
2017-05-02T13:40:41.058Z,14
2017-05-02T13:50:41.099Z,16
2017-05-02T14:00:41.129Z,16
2017-05-02T14:10:41.165Z,13
2017-05-02T14:20:41.152Z,12
2017-05-02T14:30:41.209Z,13
2017-05-02T14:40:41.133Z,13
2017-05-02T14:50:41.207Z,15
2017-05-02T15:00:41.203Z,14
2017-05-02T15:10:41.205Z,16
2017-05-02T15:20:41.219Z,13
2017-05-02T15:30:41.189Z,14
2017-05-02T15:40:41.218Z,17
2017-05-02T15:50:41.312Z,17
2017-05-02T16:00:41.657Z,17
2017-05-02T16:10:41.211Z,16
2017-05-02T16:20:41.267Z,16
2017-05-02T16:30:41.237Z,14
2017-05-02T16:40:41.312Z,14
2017-05-02T16:50:41.219Z,11
2017-05-02T17:00:41.437Z,12
2017-05-02T17:10:41.298Z,12
2017-05-02T17:20:41.267Z,11
2017-05-02T17:30:41.295Z,10
2017-05-02T17:40:41.373Z,12
2017-05-02T17:50:41.333Z,10
2017-05-02T18:00:41.364Z,11
2017-05-02T18:10:41.348Z,11
2017-05-02T18:20:41.347Z,10
2017-05-02T18:30:41.359Z,10
2017-05-02T18:40:41.446Z,9
2017-05-02T18:50:41.398Z,8
2017-05-02T19:00:41.435Z,13
2017-05-02T19:10:41.452Z,14
2017-05-02T19:20:41.605Z,10
2017-05-02T19:30:41.408Z,12
2017-05-02T19:40:41.518Z,9
2017-05-02T19:50:41.687Z,10
2017-05-02T20:00:41.547Z,10
2017-05-02T20:10:41.683Z,17
2017-05-02T20:20:41.547Z,12
2017-05-02T20:30:41.573Z,13
2017-05-02T20:40:41.618Z,14
2017-05-02T20:50:41.738Z,13
2017-05-02T21:00:41.621Z,17
2017-05-02T21:10:46.644Z,14
2017-05-02T21:20:41.530Z,16
2017-05-02T21:30:41.532Z,15
2017-05-02T21:40:41.511Z,15
2017-05-02T21:50:41.621Z,15
2017-05-02T22:00:41.668Z,15
2017-05-02T22:10:45.782Z,14
2017-05-02T22:20:41.648Z,16
2017-05-02T22:30:41.565Z,16
2017-05-02T22:40:41.571Z,18
2017-05-02T22:50:41.685Z,19
2017-05-02T23:00:41.592Z,20
2017-05-02T23:10:41.595Z,21
2017-05-02T23:20:41.607Z,22
2017-05-02T23:30:41.680Z,21
2017-05-02T23:50:41.582Z,20
